Terminal Aerodrome Forecast
Issued by NWS

Home | Current Version | Previous Version | Text Only | Print | Product List | Glossary On
Versions: 1 2 3 4 5 6 7 8 9 10 11 12 13 14 15
492
FTUS43 KDLH 281134 AAA
TAFHYR
TAF AMD
KHYR 281134Z 2812/2912 26005KT P6SM BKN020
     FM281300 27007KT P6SM BKN025
     FM281900 30009KT P6SM BKN040
     FM282300 34006KT P6SM BKN045
     FM290300 00000KT P6SM BKN050=

USA.gov is the U.S. government's official web portal to all federal, state and local government web resources and services.